createdAt,value
2023-07-04T00:01:25.270Z,93842.66
2023-07-04T00:03:53.158Z,93834.47
2023-07-04T00:06:19.571Z,93847.56
2023-07-04T00:08:46.098Z,93848.66
2023-07-04T00:11:12.916Z,93826.34
2023-07-04T00:13:40.119Z,93834.69
2023-07-04T00:16:07.749Z,93828.91
2023-07-04T00:18:35.525Z,93826.03
2023-07-04T00:21:05.248Z,93830.53
2023-07-04T00:23:36.041Z,93830.19
2023-07-04T00:26:03.403Z,93821.56
2023-07-04T00:28:29.849Z,93829.38
2023-07-04T00:30:56.437Z,93809.28
2023-07-04T00:33:24.104Z,93813.59
2023-07-04T00:35:50.936Z,93808.78
2023-07-04T00:38:22.320Z,93816.09
2023-07-04T00:40:52.338Z,93811.91
2023-07-04T00:43:18.970Z,93814.31
2023-07-04T00:46:09.259Z,93815.69
2023-07-04T00:48:36.320Z,93817.13
2023-07-04T00:51:05.648Z,93828.06
2023-07-04T00:53:37.377Z,93828.66
2023-07-04T00:56:03.855Z,93827.06
2023-07-04T00:58:33.110Z,93831.84
2023-07-04T01:01:00.015Z,93839.53
2023-07-04T01:03:35.748Z,93834.72
2023-07-04T01:06:09.726Z,93838.25
2023-07-04T01:08:43.744Z,93834.56
2023-07-04T01:11:16.991Z,93841.13
2023-07-04T01:13:47.359Z,93848.34
2023-07-04T01:16:18.049Z,93853.13
2023-07-04T01:18:50.520Z,93855.59
2023-07-04T01:21:18.994Z,93859.53
2023-07-04T01:23:45.331Z,93862.50
2023-07-04T01:26:24.117Z,93866.69
2023-07-04T01:28:54.812Z,93862.00
2023-07-04T01:31:22.228Z,93871.84
2023-07-04T01:33:49.942Z,93875.75
2023-07-04T01:36:17.777Z,93875.06
2023-07-04T01:38:44.580Z,93871.25
2023-07-04T01:41:11.917Z,93878.09
2023-07-04T01:43:38.270Z,93872.53
2023-07-04T01:46:04.727Z,93876.91
2023-07-04T01:48:31.346Z,93876.84
2023-07-04T01:50:57.847Z,93876.66
2023-07-04T01:53:24.283Z,93872.09
2023-07-04T01:55:50.681Z,93874.34
2023-07-04T01:58:18.058Z,93878.28
2023-07-04T02:00:44.413Z,93883.56
2023-07-04T02:03:10.913Z,93894.84
2023-07-04T02:05:38.019Z,93900.03
2023-07-04T02:08:04.494Z,93904.75
2023-07-04T02:10:30.863Z,93909.03
2023-07-04T02:12:57.215Z,93901.75
2023-07-04T02:15:24.745Z,93905.75
2023-07-04T02:17:51.984Z,93899.25
2023-07-04T02:20:18.553Z,93896.16
2023-07-04T02:22:44.946Z,93891.38
2023-07-04T02:25:11.313Z,93892.50
2023-07-04T02:27:37.760Z,93892.09
2023-07-04T02:30:05.137Z,93888.16
2023-07-04T02:32:31.563Z,93890.72
2023-07-04T02:34:58.021Z,93877.91
2023-07-04T02:37:24.369Z,93879.91
2023-07-04T02:39:51.249Z,93885.13
2023-07-04T02:42:17.652Z,93876.75
2023-07-04T02:44:44.051Z,93872.03
2023-07-04T02:47:11.328Z,93876.53
2023-07-04T02:49:39.180Z,93875.88
2023-07-04T02:52:06.099Z,93885.72
2023-07-04T02:54:32.523Z,93885.41
2023-07-04T02:56:59.180Z,93884.66
2023-07-04T02:59:25.544Z,93886.06
2023-07-04T03:01:53.340Z,93886.72
2023-07-04T03:04:20.958Z,93895.13
2023-07-04T03:06:47.543Z,93895.38
2023-07-04T03:09:13.924Z,93904.41
2023-07-04T03:11:44.374Z,93906.50
2023-07-04T03:14:10.744Z,93899.72
2023-07-04T03:16:37.129Z,93899.22
2023-07-04T03:19:03.727Z,93896.31
2023-07-04T03:21:36.936Z,93889.72
2023-07-04T03:24:03.359Z,93895.84
2023-07-04T03:26:29.696Z,93888.59
2023-07-04T03:28:56.095Z,93882.53
2023-07-04T03:31:22.538Z,93891.72
2023-07-04T03:33:50.899Z,93895.72
2023-07-04T03:36:32.488Z,93898.94
2023-07-04T03:38:58.926Z,93893.13
2023-07-04T03:41:25.281Z,93887.19
2023-07-04T03:43:51.624Z,93896.91
2023-07-04T03:46:18.032Z,93896.31
2023-07-04T03:48:44.518Z,93883.59
2023-07-04T03:51:11.068Z,93890.59
2023-07-04T03:53:38.774Z,93892.91
2023-07-04T03:56:05.781Z,93894.03
2023-07-04T03:58:32.157Z,93896.19
2023-07-04T04:00:58.489Z,93892.13
2023-07-04T04:03:25.615Z,93882.38
2023-07-04T04:05:52.077Z,93887.34
2023-07-04T04:08:19.013Z,93894.03
2023-07-04T04:10:45.499Z,93897.22
2023-07-04T04:13:12.288Z,93896.75
2023-07-04T04:16:00.871Z,93896.94
2023-07-04T04:18:28.527Z,93905.22
2023-07-04T04:20:55.170Z,93904.56
2023-07-04T04:23:22.676Z,93913.31
2023-07-04T04:26:02.862Z,93907.34
2023-07-04T04:28:30.744Z,93913.44
2023-07-04T04:31:00.350Z,93913.50
2023-07-04T04:33:34.912Z,93917.66
2023-07-04T04:36:10.506Z,93921.78
2023-07-04T04:38:37.604Z,93917.69
2023-07-04T04:41:06.565Z,93922.78
2023-07-04T04:43:35.861Z,93921.06
2023-07-04T04:46:04.458Z,93926.88
2023-07-04T04:48:36.685Z,93920.44
2023-07-04T04:51:08.737Z,93936.06
2023-07-04T04:53:43.278Z,93933.78
2023-07-04T04:56:13.782Z,93933.41
2023-07-04T04:58:44.768Z,93940.44
2023-07-04T05:01:16.100Z,93941.59
2023-07-04T05:03:43.332Z,93951.13
2023-07-04T05:06:10.993Z,93948.44
2023-07-04T05:08:37.758Z,93943.41
2023-07-04T05:11:07.335Z,93948.44
2023-07-04T05:13:34.173Z,93950.06
2023-07-04T05:16:05.206Z,93956.59
2023-07-04T05:18:31.885Z,93950.97
2023-07-04T05:21:05.996Z,93946.97
2023-07-04T05:23:34.155Z,93942.03
2023-07-04T05:26:01.640Z,93946.41
2023-07-04T05:28:28.047Z,93956.72
2023-07-04T05:31:01.734Z,93952.34
2023-07-04T05:33:35.680Z,93956.34
2023-07-04T05:36:20.163Z,93958.88
2023-07-04T05:38:50.615Z,93956.25
2023-07-04T05:41:36.639Z,93952.59
2023-07-04T05:44:10.530Z,93951.75
2023-07-04T05:46:37.763Z,93945.59
2023-07-04T05:49:05.263Z,93943.84
2023-07-04T05:51:43.128Z,93955.41
2023-07-04T05:54:09.529Z,93949.19
2023-07-04T05:56:36.921Z,93951.00
2023-07-04T05:59:03.625Z,93955.28
2023-07-04T06:01:36.239Z,93949.56
2023-07-04T06:04:03.459Z,93944.75
2023-07-04T06:06:52.487Z,93959.50
2023-07-04T06:09:19.933Z,93956.19
2023-07-04T06:11:47.455Z,93956.63
2023-07-04T06:14:24.221Z,93958.44
2023-07-04T06:16:50.712Z,93956.03
2023-07-04T06:19:25.658Z,93964.38
2023-07-04T06:21:52.511Z,93954.16
2023-07-04T06:24:19.045Z,93956.78
2023-07-04T06:26:46.240Z,93956.47
2023-07-04T06:29:12.592Z,93962.19
2023-07-04T06:31:43.451Z,93959.41
2023-07-04T06:34:10.663Z,93964.25
2023-07-04T06:36:37.146Z,93969.75
2023-07-04T06:39:03.561Z,93976.63
2023-07-04T06:41:30.060Z,93974.31
2023-07-04T06:43:56.472Z,93974.31
2023-07-04T06:46:23.121Z,93966.09
2023-07-04T06:48:50.174Z,93968.25
2023-07-04T06:51:18.154Z,93975.22
2023-07-04T06:53:45.275Z,93969.19
2023-07-04T06:56:13.198Z,93975.91
2023-07-04T06:58:43.637Z,93976.31
2023-07-04T07:01:11.017Z,93977.09
2023-07-04T07:03:37.494Z,93973.28
2023-07-04T07:06:05.237Z,93969.75
2023-07-04T07:08:32.349Z,93988.56
2023-07-04T07:11:00.149Z,93979.50
2023-07-04T07:13:26.766Z,93988.41
2023-07-04T07:15:54.054Z,93984.31
2023-07-04T07:18:20.701Z,93986.41
2023-07-04T07:20:48.066Z,93977.25
2023-07-04T07:23:17.305Z,93982.53
2023-07-04T07:25:43.651Z,93979.72
2023-07-04T07:28:10.015Z,93981.56
2023-07-04T07:30:36.461Z,93987.41
2023-07-04T07:33:03.751Z,93986.16
2023-07-04T07:35:31.095Z,93989.03
2023-07-04T07:37:57.510Z,93984.88
2023-07-04T07:40:23.869Z,93982.34
2023-07-04T07:42:50.246Z,93986.22
2023-07-04T07:45:16.576Z,93981.31
2023-07-04T07:47:43.827Z,93977.75
2023-07-04T07:50:10.271Z,93977.34
2023-07-04T07:52:36.654Z,93976.88
2023-07-04T07:55:03.199Z,93963.75
2023-07-04T07:57:29.550Z,93958.47
2023-07-04T07:59:55.907Z,93960.19
2023-07-04T08:02:40.524Z,93953.50
2023-07-04T08:05:07.026Z,93957.38
2023-07-04T08:07:33.478Z,93951.13
2023-07-04T08:10:00.370Z,93951.41
2023-07-04T08:12:26.768Z,93949.41
2023-07-04T08:14:53.158Z,93946.47
2023-07-04T08:17:21.953Z,93951.63
2023-07-04T08:19:48.346Z,93951.88
2023-07-04T08:22:14.705Z,93945.50
2023-07-04T08:24:41.080Z,93943.41
2023-07-04T08:27:07.479Z,93945.59
2023-07-04T08:29:33.854Z,93952.81
2023-07-04T08:32:00.442Z,93949.63
2023-07-04T08:34:27.141Z,93943.03
2023-07-04T08:36:53.508Z,93949.94
2023-07-04T08:39:19.891Z,93953.06
2023-07-04T08:42:05.790Z,93945.22
2023-07-04T08:44:32.166Z,93944.69
2023-07-04T08:46:59.249Z,93948.69
2023-07-04T08:49:28.603Z,93945.22
2023-07-04T08:52:30.542Z,93950.50
2023-07-04T08:54:56.964Z,93947.31
2023-07-04T08:57:23.294Z,93947.47
2023-07-04T08:59:54.031Z,93939.16
2023-07-04T09:02:43.524Z,93945.94
2023-07-04T09:05:49.172Z,93939.94
2023-07-04T09:08:25.322Z,93953.06
2023-07-04T09:10:53.871Z,93937.66
2023-07-04T09:13:35.399Z,93947.06
2023-07-04T09:16:03.220Z,93944.22
2023-07-04T09:18:29.593Z,93951.28
2023-07-04T09:20:59.762Z,93953.34
2023-07-04T09:23:26.312Z,93946.50
2023-07-04T09:25:54.456Z,93945.41
2023-07-04T09:28:20.859Z,93935.44
2023-07-04T09:30:49.820Z,93946.19
2023-07-04T09:33:18.022Z,93940.09
2023-07-04T09:35:44.642Z,93940.25
2023-07-04T09:38:11.081Z,93943.44
2023-07-04T09:40:41.600Z,93937.06
2023-07-04T09:43:10.177Z,93933.06
2023-07-04T09:45:36.926Z,93931.34
2023-07-04T09:48:04.581Z,93928.94
2023-07-04T09:50:35.813Z,93928.91
2023-07-04T09:53:03.675Z,93926.81
2023-07-04T09:55:30.078Z,93936.00
2023-07-04T09:58:15.440Z,93924.88
2023-07-04T10:00:44.256Z,93931.34
2023-07-04T10:03:10.816Z,93922.59
2023-07-04T10:05:38.434Z,93931.75
2023-07-04T10:08:06.854Z,93926.22
2023-07-04T10:10:35.797Z,93918.31
2023-07-04T10:13:02.288Z,93919.81
2023-07-04T10:15:36.663Z,93923.53
2023-07-04T10:18:04.704Z,93918.66
2023-07-04T10:20:40.835Z,93915.09
2023-07-04T10:23:07.380Z,93917.84
2023-07-04T10:25:34.398Z,93916.53
2023-07-04T10:28:13.753Z,93912.47
2023-07-04T10:30:42.290Z,93907.75
2023-07-04T10:33:13.256Z,93902.97
2023-07-04T10:35:41.644Z,93902.91
2023-07-04T10:38:18.368Z,93898.16
2023-07-04T10:40:46.064Z,93895.97
2023-07-04T10:43:12.399Z,93903.00
2023-07-04T10:45:48.076Z,93903.72
2023-07-04T10:48:22.850Z,93897.09
2023-07-04T10:50:57.744Z,93890.19
2023-07-04T10:53:24.177Z,93885.44
2023-07-04T10:55:57.829Z,93882.25
2023-07-04T10:58:26.791Z,93884.94
2023-07-04T11:00:59.797Z,93886.69
2023-07-04T11:03:30.907Z,93881.03
2023-07-04T11:06:02.731Z,93870.63
2023-07-04T11:08:36.160Z,93871.97
2023-07-04T11:11:14.581Z,93879.44
2023-07-04T11:13:45.477Z,93874.91
2023-07-04T11:16:13.232Z,93870.44
2023-07-04T11:18:41.562Z,93874.69
2023-07-04T11:21:08.277Z,93864.00
2023-07-04T11:23:43.914Z,93868.44
2023-07-04T11:26:10.402Z,93854.25
2023-07-04T11:28:39.992Z,93864.94
2023-07-04T11:31:17.245Z,93861.59
2023-07-04T11:34:02.067Z,93858.66
2023-07-04T11:36:31.589Z,93852.56
2023-07-04T11:39:05.186Z,93852.16
2023-07-04T11:41:35.175Z,93852.00
2023-07-04T11:44:13.724Z,93853.47
2023-07-04T11:46:56.340Z,93852.31
2023-07-04T11:49:23.483Z,93851.25
2023-07-04T11:51:50.419Z,93843.63
2023-07-04T11:54:16.830Z,93843.66
2023-07-04T11:56:48.374Z,93842.00
2023-07-04T11:59:14.710Z,93845.97
2023-07-04T12:01:53.361Z,93845.84
2023-07-04T12:04:24.199Z,93836.53
2023-07-04T12:06:53.716Z,93835.69
2023-07-04T12:09:45.095Z,93831.66
2023-07-04T12:12:24.652Z,93820.81
2023-07-04T12:15:12.350Z,93816.03
2023-07-04T12:17:44.862Z,93817.75
2023-07-04T12:20:15.517Z,93823.66
2023-07-04T12:22:45.144Z,93821.22
2023-07-04T12:25:13.271Z,93811.34
2023-07-04T12:27:47.633Z,93802.66
2023-07-04T12:30:20.141Z,93807.84
2023-07-04T12:32:49.223Z,93806.59
2023-07-04T12:35:17.416Z,93800.03
2023-07-04T12:37:47.260Z,93799.56
2023-07-04T12:40:16.837Z,93799.03
2023-07-04T12:42:44.247Z,93793.72
2023-07-04T12:45:12.475Z,93789.66
2023-07-04T12:47:39.623Z,93795.13
2023-07-04T12:50:11.557Z,93791.66
2023-07-04T12:52:38.773Z,93785.59
2023-07-04T12:55:06.205Z,93788.63
2023-07-04T12:57:33.011Z,93782.53
2023-07-04T13:00:10.681Z,93788.34
2023-07-04T13:02:37.507Z,93778.03
2023-07-04T13:05:05.435Z,93777.47
2023-07-04T13:07:32.320Z,93772.13
2023-07-04T13:09:59.750Z,93770.66
2023-07-04T13:12:29.528Z,93768.56
2023-07-04T13:15:16.911Z,93771.25
2023-07-04T13:18:06.112Z,93761.13
2023-07-04T13:20:34.784Z,93764.81
2023-07-04T13:25:54.292Z,93765.88
2023-07-04T16:39:15.482Z,93652.47
2023-07-04T16:41:50.994Z,93651.31
2023-07-04T16:44:18.368Z,93657.72
2023-07-04T16:46:48.820Z,93660.13
2023-07-04T16:49:15.342Z,93660.28
2023-07-04T16:51:43.705Z,93659.03
2023-07-04T16:54:10.073Z,93670.38
2023-07-04T16:56:36.452Z,93663.31
2023-07-04T16:59:12.238Z,93660.09
2023-07-04T17:01:38.731Z,93662.03
2023-07-04T17:04:05.242Z,93652.06
2023-07-04T17:06:31.828Z,93660.63
2023-07-04T17:11:29.240Z,93656.25
2023-07-04T17:13:56.335Z,93653.03
2023-07-04T17:16:22.934Z,93659.41
2023-07-04T17:18:49.330Z,93659.63
2023-07-04T17:21:19.786Z,93666.00
2023-07-04T17:23:46.215Z,93656.88
2023-07-04T17:26:12.595Z,93661.47
2023-07-04T17:28:47.221Z,93657.53
2023-07-04T17:31:13.601Z,93660.66
2023-07-04T17:33:46.998Z,93661.25
2023-07-04T17:36:18.466Z,93660.44
2023-07-04T17:38:47.127Z,93663.97
2023-07-04T17:41:14.746Z,93655.72
2023-07-04T17:43:46.447Z,93656.69
2023-07-04T17:46:13.687Z,93662.56
2023-07-04T17:48:40.126Z,93662.09
2023-07-04T17:51:07.924Z,93666.38
2023-07-04T17:53:34.922Z,93667.34
2023-07-04T17:56:04.645Z,93673.06
2023-07-04T17:58:31.087Z,93664.47
2023-07-04T18:01:05.929Z,93660.00
2023-07-04T18:03:33.270Z,93668.22
2023-07-04T18:06:18.275Z,93663.34
2023-07-04T18:08:49.691Z,93668.75
2023-07-04T18:11:30.180Z,93669.59
2023-07-04T19:27:42.189Z,93602.50
2023-07-04T19:51:34.646Z,93701.00
2023-07-04T19:54:02.430Z,93705.28
2023-07-04T19:56:30.972Z,93701.56
2023-07-04T19:58:57.380Z,93709.81
2023-07-04T20:01:26.481Z,93704.50
2023-07-04T20:03:53.637Z,93709.44
2023-07-04T20:06:20.173Z,93711.50
2023-07-04T20:08:47.889Z,93717.31
2023-07-04T20:11:14.369Z,93718.84
2023-07-04T20:13:40.879Z,93716.19
2023-07-04T20:16:10.305Z,93718.38
2023-07-04T20:18:37.104Z,93715.03
2023-07-04T20:21:03.807Z,93724.59
2023-07-04T20:23:36.394Z,93726.66
2023-07-04T20:26:03.229Z,93722.97
2023-07-04T20:28:30.145Z,93715.47
2023-07-04T20:30:57.952Z,93710.38
2023-07-04T20:33:25.435Z,93711.41
2023-07-04T20:35:52.082Z,93714.53
2023-07-04T20:38:19.071Z,93711.53
2023-07-04T20:40:46.435Z,93713.09
2023-07-04T20:43:13.838Z,93710.38
2023-07-04T20:45:45.246Z,93711.53
2023-07-04T20:48:14.349Z,93703.00
2023-07-04T20:50:49.203Z,93697.13
2023-07-04T20:53:26.964Z,93704.91
2023-07-04T20:55:53.873Z,93704.31
2023-07-04T20:58:22.076Z,93706.44
2023-07-04T21:00:52.687Z,93706.88
2023-07-04T21:03:20.156Z,93707.94
2023-07-04T21:05:46.723Z,93705.16
2023-07-04T21:08:13.207Z,93704.03
2023-07-04T21:10:39.693Z,93708.63
2023-07-04T21:13:16.835Z,93705.69
2023-07-04T21:15:43.837Z,93715.19
2023-07-04T21:18:10.543Z,93708.66
2023-07-04T21:20:36.954Z,93716.53
2023-07-04T21:23:03.480Z,93715.81
2023-07-04T21:25:29.958Z,93709.91
2023-07-04T21:27:56.321Z,93710.06
2023-07-04T21:30:22.699Z,93705.47
2023-07-04T21:32:49.210Z,93713.81
2023-07-04T21:35:15.637Z,93714.31
2023-07-04T21:37:43.003Z,93706.81
2023-07-04T21:40:09.732Z,93701.47
2023-07-04T21:42:36.132Z,93696.94
2023-07-04T21:45:02.477Z,93691.63
2023-07-04T21:47:31.453Z,93695.00
2023-07-04T21:49:57.921Z,93693.44
2023-07-04T21:52:24.443Z,93702.88
2023-07-04T21:54:50.787Z,93705.56
2023-07-04T21:57:17.242Z,93704.41
2023-07-04T21:59:44.136Z,93705.44
2023-07-04T22:02:11.012Z,93700.41
2023-07-04T22:04:37.415Z,93692.66
2023-07-04T22:07:03.864Z,93692.97
2023-07-04T22:09:30.401Z,93690.50
2023-07-04T22:11:56.854Z,93685.78
2023-07-04T22:14:36.221Z,93687.69
2023-07-04T22:17:05.188Z,93682.59
2023-07-04T22:19:31.845Z,93688.03
2023-07-04T22:21:58.238Z,93687.22
2023-07-04T22:24:24.612Z,93684.34
2023-07-04T22:26:50.980Z,93693.03
2023-07-04T22:29:17.459Z,93695.09
2023-07-04T22:31:43.802Z,93688.53
2023-07-04T22:34:15.316Z,93686.91
2023-07-04T22:36:41.988Z,93690.94
2023-07-04T22:39:09.579Z,93687.63
2023-07-04T22:41:36.312Z,93690.44
2023-07-04T22:44:02.718Z,93692.03
2023-07-04T22:46:32.110Z,93695.91
2023-07-04T22:48:58.902Z,93701.13
2023-07-04T22:51:25.441Z,93697.66
2023-07-04T22:53:52.263Z,93689.66
2023-07-04T22:56:18.801Z,93693.91
2023-07-04T22:58:45.405Z,93690.28
2023-07-04T23:01:13.086Z,93686.69
2023-07-04T23:03:40.359Z,93691.22
2023-07-04T23:06:07.342Z,93682.72
2023-07-04T23:08:33.836Z,93683.69
2023-07-04T23:11:00.204Z,93683.69
2023-07-04T23:13:27.858Z,93665.34
2023-07-04T23:16:02.080Z,93661.41
2023-07-04T23:18:28.523Z,93666.38
2023-07-04T23:20:56.141Z,93671.66
2023-07-04T23:23:22.505Z,93674.72
2023-07-04T23:25:49.331Z,93681.88
2023-07-04T23:28:16.737Z,93679.44
2023-07-04T23:30:43.148Z,93688.56
2023-07-04T23:33:09.549Z,93670.47
2023-07-04T23:35:36.123Z,93670.47
2023-07-04T23:38:03.405Z,93674.03
2023-07-04T23:40:29.759Z,93678.78
2023-07-04T23:42:56.088Z,93677.59
2023-07-04T23:45:22.427Z,93677.63
2023-07-04T23:47:48.797Z,93668.84
2023-07-04T23:50:15.258Z,93674.16
2023-07-04T23:52:41.589Z,93677.22
2023-07-04T23:55:08.140Z,93679.66
2023-07-04T23:57:34.483Z,93674.53
